sensor_id;sensor_type;location;lat;lon;timestamp;temperature;humidity
22145;DHT22;11238;48.730;11.566;2024-01-16T00:00:46;-0.90;99.90
22145;DHT22;11238;48.730;11.566;2024-01-16T00:03:13;-0.90;99.90
22145;DHT22;11238;48.730;11.566;2024-01-16T00:05:39;-0.90;99.90
22145;DHT22;11238;48.730;11.566;2024-01-16T00:08:05;-0.90;99.90
22145;DHT22;11238;48.730;11.566;2024-01-16T00:10:31;-0.90;99.90
22145;DHT22;11238;48.730;11.566;2024-01-16T00:13:19;-0.90;99.90
22145;DHT22;11238;48.730;11.566;2024-01-16T00:15:45;-0.90;99.90
22145;DHT22;11238;48.730;11.566;2024-01-16T00:18:11;-0.90;99.90
22145;DHT22;11238;48.730;11.566;2024-01-16T00:20:37;-0.90;99.90
22145;DHT22;11238;48.730;11.566;2024-01-16T00:23:03;-0.90;99.90
22145;DHT22;11238;48.730;11.566;2024-01-16T00:25:29;-0.90;99.90
22145;DHT22;11238;48.730;11.566;2024-01-16T00:27:55;-0.90;99.90
22145;DHT22;11238;48.730;11.566;2024-01-16T00:30:21;-0.90;99.90
22145;DHT22;11238;48.730;11.566;2024-01-16T00:32:46;-0.90;99.90
22145;DHT22;11238;48.730;11.566;2024-01-16T00:35:12;-0.90;99.90
22145;DHT22;11238;48.730;11.566;2024-01-16T00:37:38;-0.90;99.90
22145;DHT22;11238;48.730;11.566;2024-01-16T00:40:05;-0.90;99.90
22145;DHT22;11238;48.730;11.566;2024-01-16T00:42:34;-0.90;99.90
22145;DHT22;11238;48.730;11.566;2024-01-16T00:45:00;-0.90;99.90
22145;DHT22;11238;48.730;11.566;2024-01-16T00:47:26;-0.90;99.90
22145;DHT22;11238;48.730;11.566;2024-01-16T00:49:52;-0.90;99.90
22145;DHT22;11238;48.730;11.566;2024-01-16T00:52:18;-0.80;99.90
22145;DHT22;11238;48.730;11.566;2024-01-16T00:54:45;-0.80;99.90
22145;DHT22;11238;48.730;11.566;2024-01-16T00:57:11;-0.80;99.90
22145;DHT22;11238;48.730;11.566;2024-01-16T00:59:37;-0.70;99.90
22145;DHT22;11238;48.730;11.566;2024-01-16T01:02:03;-0.60;99.90
22145;DHT22;11238;48.730;11.566;2024-01-16T01:04:29;-0.60;99.90
22145;DHT22;11238;48.730;11.566;2024-01-16T01:06:58;-0.60;99.90
22145;DHT22;11238;48.730;11.566;2024-01-16T01:09:24;-0.60;99.90
22145;DHT22;11238;48.730;11.566;2024-01-16T01:11:50;-0.60;99.90
22145;DHT22;11238;48.730;11.566;2024-01-16T01:14:15;-0.60;99.90
22145;DHT22;11238;48.730;11.566;2024-01-16T01:16:41;-0.60;99.90
22145;DHT22;11238;48.730;11.566;2024-01-16T01:19:06;-0.60;99.90
22145;DHT22;11238;48.730;11.566;2024-01-16T01:21:32;-0.60;99.90
22145;DHT22;11238;48.730;11.566;2024-01-16T01:23:58;-0.60;99.90
22145;DHT22;11238;48.730;11.566;2024-01-16T01:26:24;-0.60;99.90
22145;DHT22;11238;48.730;11.566;2024-01-16T01:28:50;-0.60;99.90
22145;DHT22;11238;48.730;11.566;2024-01-16T01:31:16;-0.60;99.90
22145;DHT22;11238;48.730;11.566;2024-01-16T01:33:42;-0.60;99.90
22145;DHT22;11238;48.730;11.566;2024-01-16T01:36:08;-0.60;99.90
22145;DHT22;11238;48.730;11.566;2024-01-16T01:38:35;-0.70;99.90
22145;DHT22;11238;48.730;11.566;2024-01-16T01:41:01;-0.80;99.90
22145;DHT22;11238;48.730;11.566;2024-01-16T01:43:27;-0.90;99.90
22145;DHT22;11238;48.730;11.566;2024-01-16T01:46:13;-0.90;99.90
22145;DHT22;11238;48.730;11.566;2024-01-16T01:48:41;-1.00;99.90
22145;DHT22;11238;48.730;11.566;2024-01-16T01:51:08;-1.10;99.90
22145;DHT22;11238;48.730;11.566;2024-01-16T01:53:34;-1.30;99.90
22145;DHT22;11238;48.730;11.566;2024-01-16T01:56:04;-1.40;99.90
22145;DHT22;11238;48.730;11.566;2024-01-16T01:58:33;-1.50;99.90
22145;DHT22;11238;48.730;11.566;2024-01-16T02:01:00;-1.60;99.90
22145;DHT22;11238;48.730;11.566;2024-01-16T02:03:29;-1.70;99.90
22145;DHT22;11238;48.730;11.566;2024-01-16T02:05:57;-1.70;99.90
22145;DHT22;11238;48.730;11.566;2024-01-16T02:08:24;-1.70;99.90
22145;DHT22;11238;48.730;11.566;2024-01-16T02:10:50;-1.60;99.90
22145;DHT22;11238;48.730;11.566;2024-01-16T02:13:18;-1.50;99.90
22145;DHT22;11238;48.730;11.566;2024-01-16T02:15:46;-1.40;99.90
22145;DHT22;11238;48.730;11.566;2024-01-16T02:18:12;-1.30;99.90
22145;DHT22;11238;48.730;11.566;2024-01-16T02:20:38;-1.30;99.90
22145;DHT22;11238;48.730;11.566;2024-01-16T02:23:04;-1.30;99.90
22145;DHT22;11238;48.730;11.566;2024-01-16T02:25:30;-1.20;99.90
22145;DHT22;11238;48.730;11.566;2024-01-16T02:27:56;-1.30;99.90
22145;DHT22;11238;48.730;11.566;2024-01-16T02:30:23;-1.30;99.90
22145;DHT22;11238;48.730;11.566;2024-01-16T02:32:49;-1.20;99.90
22145;DHT22;11238;48.730;11.566;2024-01-16T02:35:15;-1.20;99.90
22145;DHT22;11238;48.730;11.566;2024-01-16T02:37:41;-1.20;99.90
22145;DHT22;11238;48.730;11.566;2024-01-16T02:40:07;-1.20;99.90
22145;DHT22;11238;48.730;11.566;2024-01-16T02:42:35;-1.20;99.90
22145;DHT22;11238;48.730;11.566;2024-01-16T02:45:03;-1.20;99.90
22145;DHT22;11238;48.730;11.566;2024-01-16T02:47:29;-1.20;99.90
22145;DHT22;11238;48.730;11.566;2024-01-16T02:49:55;-1.20;99.90
22145;DHT22;11238;48.730;11.566;2024-01-16T02:52:21;-1.20;99.90
22145;DHT22;11238;48.730;11.566;2024-01-16T02:54:47;-1.20;99.90
22145;DHT22;11238;48.730;11.566;2024-01-16T02:57:13;-1.20;99.90
22145;DHT22;11238;48.730;11.566;2024-01-16T02:59:39;-1.20;99.90
22145;DHT22;11238;48.730;11.566;2024-01-16T03:02:05;-1.10;99.90
22145;DHT22;11238;48.730;11.566;2024-01-16T03:04:30;-1.20;99.90
22145;DHT22;11238;48.730;11.566;2024-01-16T03:06:56;-1.10;99.90
22145;DHT22;11238;48.730;11.566;2024-01-16T03:09:22;-1.20;99.90
22145;DHT22;11238;48.730;11.566;2024-01-16T03:11:48;-1.10;99.90
22145;DHT22;11238;48.730;11.566;2024-01-16T03:14:14;-1.10;99.90
22145;DHT22;11238;48.730;11.566;2024-01-16T03:16:40;-1.10;99.90
22145;DHT22;11238;48.730;11.566;2024-01-16T03:19:06;-1.20;99.90
22145;DHT22;11238;48.730;11.566;2024-01-16T03:21:32;-1.10;99.90
22145;DHT22;11238;48.730;11.566;2024-01-16T03:23:58;-1.10;99.90
22145;DHT22;11238;48.730;11.566;2024-01-16T03:26:23;-1.20;99.90
22145;DHT22;11238;48.730;11.566;2024-01-16T03:28:49;-1.20;99.90
22145;DHT22;11238;48.730;11.566;2024-01-16T03:31:15;-1.30;99.90
22145;DHT22;11238;48.730;11.566;2024-01-16T03:33:41;-1.30;99.90
22145;DHT22;11238;48.730;11.566;2024-01-16T03:36:09;-1.30;99.90
22145;DHT22;11238;48.730;11.566;2024-01-16T03:38:38;-1.40;99.90
22145;DHT22;11238;48.730;11.566;2024-01-16T03:41:04;-1.40;99.90
22145;DHT22;11238;48.730;11.566;2024-01-16T03:43:34;-1.50;99.90
22145;DHT22;11238;48.730;11.566;2024-01-16T03:46:01;-1.50;99.90
22145;DHT22;11238;48.730;11.566;2024-01-16T03:48:26;-1.50;99.90
22145;DHT22;11238;48.730;11.566;2024-01-16T03:50:53;-1.60;99.90
22145;DHT22;11238;48.730;11.566;2024-01-16T03:53:20;-1.60;99.90
22145;DHT22;11238;48.730;11.566;2024-01-16T03:55:47;-1.60;99.90
22145;DHT22;11238;48.730;11.566;2024-01-16T03:58:13;-1.60;99.90
22145;DHT22;11238;48.730;11.566;2024-01-16T04:00:39;-1.60;99.90
22145;DHT22;11238;48.730;11.566;2024-01-16T04:03:05;-1.60;99.90
22145;DHT22;11238;48.730;11.566;2024-01-16T04:05:33;-1.70;99.90
22145;DHT22;11238;48.730;11.566;2024-01-16T04:07:59;-1.70;99.90
22145;DHT22;11238;48.730;11.566;2024-01-16T04:10:25;-1.70;99.90
22145;DHT22;11238;48.730;11.566;2024-01-16T04:12:51;-1.70;99.90
22145;DHT22;11238;48.730;11.566;2024-01-16T04:15:17;-1.80;99.90
22145;DHT22;11238;48.730;11.566;2024-01-16T04:17:43;-1.80;99.90
22145;DHT22;11238;48.730;11.566;2024-01-16T04:20:10;-1.90;99.90
22145;DHT22;11238;48.730;11.566;2024-01-16T04:22:36;-1.90;99.90
22145;DHT22;11238;48.730;11.566;2024-01-16T04:25:02;-1.90;99.90
22145;DHT22;11238;48.730;11.566;2024-01-16T04:27:31;-1.90;99.90
22145;DHT22;11238;48.730;11.566;2024-01-16T04:29:57;-1.90;99.90
22145;DHT22;11238;48.730;11.566;2024-01-16T04:32:23;-2.00;99.90
22145;DHT22;11238;48.730;11.566;2024-01-16T04:34:49;-2.00;99.90
22145;DHT22;11238;48.730;11.566;2024-01-16T04:37:16;-2.00;99.90
22145;DHT22;11238;48.730;11.566;2024-01-16T04:39:41;-2.10;99.90
22145;DHT22;11238;48.730;11.566;2024-01-16T04:42:07;-2.10;99.90
22145;DHT22;11238;48.730;11.566;2024-01-16T04:44:33;-2.20;99.90
22145;DHT22;11238;48.730;11.566;2024-01-16T04:46:59;-2.20;99.90
22145;DHT22;11238;48.730;11.566;2024-01-16T04:49:25;-2.20;99.90
22145;DHT22;11238;48.730;11.566;2024-01-16T04:51:51;-2.30;99.90
22145;DHT22;11238;48.730;11.566;2024-01-16T04:54:17;-2.30;99.90
22145;DHT22;11238;48.730;11.566;2024-01-16T04:56:45;-2.40;99.90
22145;DHT22;11238;48.730;11.566;2024-01-16T04:59:11;-2.40;99.90
22145;DHT22;11238;48.730;11.566;2024-01-16T05:01:37;-2.40;99.90
22145;DHT22;11238;48.730;11.566;2024-01-16T05:04:03;-2.40;99.90
22145;DHT22;11238;48.730;11.566;2024-01-16T05:06:29;-2.40;99.90
22145;DHT22;11238;48.730;11.566;2024-01-16T05:08:55;-2.40;99.90
22145;DHT22;11238;48.730;11.566;2024-01-16T05:11:21;-2.50;99.90
22145;DHT22;11238;48.730;11.566;2024-01-16T05:13:50;-2.50;99.90
22145;DHT22;11238;48.730;11.566;2024-01-16T05:16:32;-2.50;99.90
22145;DHT22;11238;48.730;11.566;2024-01-16T05:18:58;-2.50;99.90
22145;DHT22;11238;48.730;11.566;2024-01-16T05:21:24;-2.50;99.90
22145;DHT22;11238;48.730;11.566;2024-01-16T05:23:50;-2.50;99.90
22145;DHT22;11238;48.730;11.566;2024-01-16T05:26:16;-2.50;99.90
22145;DHT22;11238;48.730;11.566;2024-01-16T05:28:42;-2.50;99.90
22145;DHT22;11238;48.730;11.566;2024-01-16T05:31:08;-2.50;99.90
22145;DHT22;11238;48.730;11.566;2024-01-16T05:33:35;-2.50;99.90
22145;DHT22;11238;48.730;11.566;2024-01-16T05:36:01;-2.50;99.90
22145;DHT22;11238;48.730;11.566;2024-01-16T05:38:28;-2.50;99.90
22145;DHT22;11238;48.730;11.566;2024-01-16T05:40:53;-2.50;99.90
22145;DHT22;11238;48.730;11.566;2024-01-16T05:43:19;-2.50;99.90
22145;DHT22;11238;48.730;11.566;2024-01-16T05:45:45;-2.50;99.90
22145;DHT22;11238;48.730;11.566;2024-01-16T05:48:12;-2.50;99.90
22145;DHT22;11238;48.730;11.566;2024-01-16T05:50:38;-2.50;99.90
22145;DHT22;11238;48.730;11.566;2024-01-16T05:53:04;-2.50;99.90
22145;DHT22;11238;48.730;11.566;2024-01-16T05:55:29;-2.60;99.90
22145;DHT22;11238;48.730;11.566;2024-01-16T05:57:58;-2.60;99.90
22145;DHT22;11238;48.730;11.566;2024-01-16T06:00:27;-2.60;99.90
22145;DHT22;11238;48.730;11.566;2024-01-16T06:03:15;-2.50;99.90
22145;DHT22;11238;48.730;11.566;2024-01-16T06:05:41;-2.60;99.90
22145;DHT22;11238;48.730;11.566;2024-01-16T06:08:06;-2.50;99.90
22145;DHT22;11238;48.730;11.566;2024-01-16T06:10:33;-2.60;99.90
22145;DHT22;11238;48.730;11.566;2024-01-16T06:12:58;-2.60;99.90
22145;DHT22;11238;48.730;11.566;2024-01-16T06:15:24;-2.60;99.90
22145;DHT22;11238;48.730;11.566;2024-01-16T06:17:50;-2.60;99.90
22145;DHT22;11238;48.730;11.566;2024-01-16T06:20:17;-2.70;99.90
22145;DHT22;11238;48.730;11.566;2024-01-16T06:22:43;-2.70;99.90
22145;DHT22;11238;48.730;11.566;2024-01-16T06:25:09;-2.70;99.90
22145;DHT22;11238;48.730;11.566;2024-01-16T06:27:35;-2.70;99.90
22145;DHT22;11238;48.730;11.566;2024-01-16T06:30:00;-2.80;99.90
22145;DHT22;11238;48.730;11.566;2024-01-16T06:32:27;-2.80;99.90
22145;DHT22;11238;48.730;11.566;2024-01-16T06:34:52;-2.90;99.90
22145;DHT22;11238;48.730;11.566;2024-01-16T06:37:18;-2.90;99.90
22145;DHT22;11238;48.730;11.566;2024-01-16T06:39:44;-3.00;99.90
22145;DHT22;11238;48.730;11.566;2024-01-16T06:42:09;-3.00;99.90
22145;DHT22;11238;48.730;11.566;2024-01-16T06:44:37;-3.00;99.90
22145;DHT22;11238;48.730;11.566;2024-01-16T06:47:03;-3.10;99.90
22145;DHT22;11238;48.730;11.566;2024-01-16T06:49:30;-3.10;99.90
22145;DHT22;11238;48.730;11.566;2024-01-16T06:51:56;-3.10;99.90
22145;DHT22;11238;48.730;11.566;2024-01-16T06:54:23;-3.10;99.90
22145;DHT22;11238;48.730;11.566;2024-01-16T06:56:50;-3.10;99.90
22145;DHT22;11238;48.730;11.566;2024-01-16T06:59:16;-3.10;99.90
22145;DHT22;11238;48.730;11.566;2024-01-16T07:01:45;-3.00;99.90
22145;DHT22;11238;48.730;11.566;2024-01-16T07:04:11;-3.00;99.90
22145;DHT22;11238;48.730;11.566;2024-01-16T07:06:37;-3.20;99.90
22145;DHT22;11238;48.730;11.566;2024-01-16T07:09:03;-3.10;99.90
22145;DHT22;11238;48.730;11.566;2024-01-16T07:11:30;-3.10;99.90
22145;DHT22;11238;48.730;11.566;2024-01-16T07:13:56;-3.10;99.90
22145;DHT22;11238;48.730;11.566;2024-01-16T07:16:22;-3.10;99.90
22145;DHT22;11238;48.730;11.566;2024-01-16T07:18:49;-3.20;99.90
22145;DHT22;11238;48.730;11.566;2024-01-16T07:21:19;-3.20;99.90
22145;DHT22;11238;48.730;11.566;2024-01-16T07:23:45;-3.20;99.90
22145;DHT22;11238;48.730;11.566;2024-01-16T07:26:33;-3.10;99.90
22145;DHT22;11238;48.730;11.566;2024-01-16T07:29:00;-3.10;99.90
22145;DHT22;11238;48.730;11.566;2024-01-16T07:31:25;-3.10;99.90
22145;DHT22;11238;48.730;11.566;2024-01-16T07:33:54;-3.10;99.90
22145;DHT22;11238;48.730;11.566;2024-01-16T07:36:19;-3.20;99.90
22145;DHT22;11238;48.730;11.566;2024-01-16T07:38:45;-3.20;99.90
22145;DHT22;11238;48.730;11.566;2024-01-16T07:41:11;-3.20;99.90
22145;DHT22;11238;48.730;11.566;2024-01-16T07:43:37;-3.20;99.90
22145;DHT22;11238;48.730;11.566;2024-01-16T07:46:03;-3.10;99.90
22145;DHT22;11238;48.730;11.566;2024-01-16T07:48:29;-3.10;99.90
22145;DHT22;11238;48.730;11.566;2024-01-16T07:50:55;-3.10;99.90
22145;DHT22;11238;48.730;11.566;2024-01-16T07:53:21;-3.10;99.90
22145;DHT22;11238;48.730;11.566;2024-01-16T07:55:46;-3.00;99.90
22145;DHT22;11238;48.730;11.566;2024-01-16T07:58:13;-3.10;99.90
22145;DHT22;11238;48.730;11.566;2024-01-16T08:01:01;-3.00;99.90
22145;DHT22;11238;48.730;11.566;2024-01-16T08:03:29;-3.00;99.90
22145;DHT22;11238;48.730;11.566;2024-01-16T08:05:54;-2.90;99.90
22145;DHT22;11238;48.730;11.566;2024-01-16T08:08:22;-2.90;99.90
22145;DHT22;11238;48.730;11.566;2024-01-16T08:10:48;-2.90;99.90
22145;DHT22;11238;48.730;11.566;2024-01-16T08:13:14;-2.80;99.90
22145;DHT22;11238;48.730;11.566;2024-01-16T08:15:40;-2.80;99.90
22145;DHT22;11238;48.730;11.566;2024-01-16T08:18:06;-2.80;99.90
22145;DHT22;11238;48.730;11.566;2024-01-16T08:20:32;-2.70;99.90
22145;DHT22;11238;48.730;11.566;2024-01-16T08:22:58;-2.70;99.90
22145;DHT22;11238;48.730;11.566;2024-01-16T08:25:24;-2.70;99.90
22145;DHT22;11238;48.730;11.566;2024-01-16T08:27:50;-2.70;99.90
22145;DHT22;11238;48.730;11.566;2024-01-16T08:30:16;-2.70;99.90
22145;DHT22;11238;48.730;11.566;2024-01-16T08:32:42;-2.60;99.90
22145;DHT22;11238;48.730;11.566;2024-01-16T08:35:09;-2.70;99.90
22145;DHT22;11238;48.730;11.566;2024-01-16T08:37:34;-2.60;99.90
22145;DHT22;11238;48.730;11.566;2024-01-16T08:40:00;-2.60;99.90
22145;DHT22;11238;48.730;11.566;2024-01-16T08:42:26;-2.50;99.90
22145;DHT22;11238;48.730;11.566;2024-01-16T08:44:52;-2.50;99.90
22145;DHT22;11238;48.730;11.566;2024-01-16T08:47:18;-2.50;99.90
22145;DHT22;11238;48.730;11.566;2024-01-16T08:49:45;-2.50;99.90
22145;DHT22;11238;48.730;11.566;2024-01-16T08:52:11;-2.40;99.90
22145;DHT22;11238;48.730;11.566;2024-01-16T08:54:37;-2.40;99.90
22145;DHT22;11238;48.730;11.566;2024-01-16T08:57:03;-2.30;99.90
22145;DHT22;11238;48.730;11.566;2024-01-16T08:59:30;-2.40;99.90
22145;DHT22;11238;48.730;11.566;2024-01-16T09:01:55;-2.30;99.90
22145;DHT22;11238;48.730;11.566;2024-01-16T09:04:21;-2.30;99.90
22145;DHT22;11238;48.730;11.566;2024-01-16T09:06:48;-2.20;99.90
22145;DHT22;11238;48.730;11.566;2024-01-16T09:09:15;-2.20;99.90
22145;DHT22;11238;48.730;11.566;2024-01-16T09:11:41;-2.30;99.90
22145;DHT22;11238;48.730;11.566;2024-01-16T09:14:09;-2.30;99.90
22145;DHT22;11238;48.730;11.566;2024-01-16T09:16:35;-2.30;99.90
22145;DHT22;11238;48.730;11.566;2024-01-16T09:19:01;-2.20;99.90
22145;DHT22;11238;48.730;11.566;2024-01-16T09:21:27;-2.20;99.90
22145;DHT22;11238;48.730;11.566;2024-01-16T09:23:54;-2.10;99.90
22145;DHT22;11238;48.730;11.566;2024-01-16T09:26:20;-2.10;99.90
22145;DHT22;11238;48.730;11.566;2024-01-16T09:28:46;-1.90;99.90
22145;DHT22;11238;48.730;11.566;2024-01-16T09:31:34;-1.60;99.90
22145;DHT22;11238;48.730;11.566;2024-01-16T09:34:03;-1.40;99.90
22145;DHT22;11238;48.730;11.566;2024-01-16T09:36:29;-1.40;99.90
22145;DHT22;11238;48.730;11.566;2024-01-16T09:38:56;-1.30;99.90
22145;DHT22;11238;48.730;11.566;2024-01-16T09:41:23;-1.20;99.90
22145;DHT22;11238;48.730;11.566;2024-01-16T09:43:50;-1.00;99.90
22145;DHT22;11238;48.730;11.566;2024-01-16T09:46:17;-0.90;99.90
22145;DHT22;11238;48.730;11.566;2024-01-16T09:48:46;-0.70;99.90
22145;DHT22;11238;48.730;11.566;2024-01-16T09:51:34;-0.40;99.90
22145;DHT22;11238;48.730;11.566;2024-01-16T09:54:00;0.00;99.90
22145;DHT22;11238;48.730;11.566;2024-01-16T09:56:28;0.30;99.90
22145;DHT22;11238;48.730;11.566;2024-01-16T09:59:03;1.10;99.90
22145;DHT22;11238;48.730;11.566;2024-01-16T10:01:31;1.50;99.90
22145;DHT22;11238;48.730;11.566;2024-01-16T10:03:59;1.50;99.90
22145;DHT22;11238;48.730;11.566;2024-01-16T10:06:31;1.30;99.10
22145;DHT22;11238;48.730;11.566;2024-01-16T10:08:59;1.20;99.70
22145;DHT22;11238;48.730;11.566;2024-01-16T10:11:25;1.50;99.60
22145;DHT22;11238;48.730;11.566;2024-01-16T10:13:51;1.70;98.50
22145;DHT22;11238;48.730;11.566;2024-01-16T10:16:17;1.90;97.40
22145;DHT22;11238;48.730;11.566;2024-01-16T10:18:43;2.20;97.20
22145;DHT22;11238;48.730;11.566;2024-01-16T10:21:20;2.50;96.60
22145;DHT22;11238;48.730;11.566;2024-01-16T10:23:48;1.30;96.30
22145;DHT22;11238;48.730;11.566;2024-01-16T10:26:14;0.90;97.70
22145;DHT22;11238;48.730;11.566;2024-01-16T10:28:42;0.70;99.30
22145;DHT22;11238;48.730;11.566;2024-01-16T10:31:12;0.70;99.30
22145;DHT22;11238;48.730;11.566;2024-01-16T10:33:40;0.80;99.00
22145;DHT22;11238;48.730;11.566;2024-01-16T10:38:39;0.40;99.20
22145;DHT22;11238;48.730;11.566;2024-01-16T10:41:17;0.10;99.70
22145;DHT22;11238;48.730;11.566;2024-01-16T10:43:44;-0.10;99.90
22145;DHT22;11238;48.730;11.566;2024-01-16T10:48:41;-0.10;99.90
22145;DHT22;11238;48.730;11.566;2024-01-16T10:51:09;-0.10;99.90
22145;DHT22;11238;48.730;11.566;2024-01-16T10:53:42;-0.20;99.90
22145;DHT22;11238;48.730;11.566;2024-01-16T10:56:12;-0.10;99.90
22145;DHT22;11238;48.730;11.566;2024-01-16T10:58:43;-0.20;99.90
22145;DHT22;11238;48.730;11.566;2024-01-16T11:01:15;-0.10;99.90
22145;DHT22;11238;48.730;11.566;2024-01-16T11:03:49;0.00;99.90
22145;DHT22;11238;48.730;11.566;2024-01-16T11:06:17;-0.20;99.90
22145;DHT22;11238;48.730;11.566;2024-01-16T11:08:47;-0.20;99.90
22145;DHT22;11238;48.730;11.566;2024-01-16T11:11:14;-0.30;99.90
22145;DHT22;11238;48.730;11.566;2024-01-16T11:13:41;-0.40;99.90
22145;DHT22;11238;48.730;11.566;2024-01-16T11:16:13;-0.60;99.90
22145;DHT22;11238;48.730;11.566;2024-01-16T11:18:39;-0.60;99.90
22145;DHT22;11238;48.730;11.566;2024-01-16T11:21:12;-0.50;99.90
22145;DHT22;11238;48.730;11.566;2024-01-16T11:23:38;-0.60;99.90
22145;DHT22;11238;48.730;11.566;2024-01-16T11:28:55;-0.50;99.90
22145;DHT22;11238;48.730;11.566;2024-01-16T11:31:33;-0.50;99.90
22145;DHT22;11238;48.730;11.566;2024-01-16T11:34:00;-0.60;99.90
22145;DHT22;11238;48.730;11.566;2024-01-16T11:36:49;-0.60;99.90
22145;DHT22;11238;48.730;11.566;2024-01-16T11:39:21;-0.60;99.90
22145;DHT22;11238;48.730;11.566;2024-01-16T11:41:54;-0.70;99.90
22145;DHT22;11238;48.730;11.566;2024-01-16T11:44:47;-0.70;99.90
22145;DHT22;11238;48.730;11.566;2024-01-16T11:47:24;-0.80;99.90
22145;DHT22;11238;48.730;11.566;2024-01-16T11:50:07;-0.70;99.90
22145;DHT22;11238;48.730;11.566;2024-01-16T11:52:44;-0.70;99.90
22145;DHT22;11238;48.730;11.566;2024-01-16T11:55:30;-0.70;99.90
22145;DHT22;11238;48.730;11.566;2024-01-16T12:01:00;-0.60;99.90
22145;DHT22;11238;48.730;11.566;2024-01-16T12:03:26;-0.60;99.90
22145;DHT22;11238;48.730;11.566;2024-01-16T12:06:00;-0.60;99.90
22145;DHT22;11238;48.730;11.566;2024-01-16T12:08:49;-0.60;99.90
22145;DHT22;11238;48.730;11.566;2024-01-16T12:11:18;-0.70;99.90
22145;DHT22;11238;48.730;11.566;2024-01-16T12:14:00;-0.70;99.90
22145;DHT22;11238;48.730;11.566;2024-01-16T12:16:25;-0.60;99.90
22145;DHT22;11238;48.730;11.566;2024-01-16T12:19:06;-0.60;99.90
22145;DHT22;11238;48.730;11.566;2024-01-16T12:21:44;-0.60;99.90
22145;DHT22;11238;48.730;11.566;2024-01-16T12:24:10;-0.50;99.90
22145;DHT22;11238;48.730;11.566;2024-01-16T12:26:37;-0.50;99.90
22145;DHT22;11238;48.730;11.566;2024-01-16T12:29:03;-0.40;99.90
22145;DHT22;11238;48.730;11.566;2024-01-16T12:31:29;-0.30;99.90
22145;DHT22;11238;48.730;11.566;2024-01-16T12:34:06;-0.30;99.90
22145;DHT22;11238;48.730;11.566;2024-01-16T12:36:33;-0.20;99.90
22145;DHT22;11238;48.730;11.566;2024-01-16T12:38:59;-0.40;99.90
22145;DHT22;11238;48.730;11.566;2024-01-16T12:41:36;-0.40;99.90
22145;DHT22;11238;48.730;11.566;2024-01-16T12:44:03;-0.30;99.90
22145;DHT22;11238;48.730;11.566;2024-01-16T12:46:29;-0.20;99.90
22145;DHT22;11238;48.730;11.566;2024-01-16T12:49:02;-0.30;99.90
22145;DHT22;11238;48.730;11.566;2024-01-16T12:51:28;-0.20;99.90
22145;DHT22;11238;48.730;11.566;2024-01-16T12:53:54;-0.20;99.90
22145;DHT22;11238;48.730;11.566;2024-01-16T12:56:20;-0.10;99.90
22145;DHT22;11238;48.730;11.566;2024-01-16T12:58:46;-0.10;99.90
22145;DHT22;11238;48.730;11.566;2024-01-16T13:01:29;-0.10;99.90
22145;DHT22;11238;48.730;11.566;2024-01-16T13:03:54;0.00;99.90
22145;DHT22;11238;48.730;11.566;2024-01-16T13:06:22;0.00;99.90
22145;DHT22;11238;48.730;11.566;2024-01-16T13:09:05;0.10;99.90
22145;DHT22;11238;48.730;11.566;2024-01-16T13:11:47;0.10;99.90
22145;DHT22;11238;48.730;11.566;2024-01-16T13:14:14;0.20;99.90
22145;DHT22;11238;48.730;11.566;2024-01-16T13:16:39;0.30;99.90
22145;DHT22;11238;48.730;11.566;2024-01-16T13:19:06;0.30;99.90
22145;DHT22;11238;48.730;11.566;2024-01-16T13:21:36;0.30;99.90
22145;DHT22;11238;48.730;11.566;2024-01-16T13:24:06;0.30;99.90
22145;DHT22;11238;48.730;11.566;2024-01-16T13:26:32;0.20;99.90
22145;DHT22;11238;48.730;11.566;2024-01-16T13:28:58;0.20;99.90
22145;DHT22;11238;48.730;11.566;2024-01-16T13:31:24;0.30;99.90
22145;DHT22;11238;48.730;11.566;2024-01-16T13:33:50;0.30;99.90
22145;DHT22;11238;48.730;11.566;2024-01-16T13:36:15;0.30;99.90
22145;DHT22;11238;48.730;11.566;2024-01-16T13:38:41;0.40;99.90
22145;DHT22;11238;48.730;11.566;2024-01-16T13:41:07;0.40;99.90
22145;DHT22;11238;48.730;11.566;2024-01-16T13:43:33;0.30;99.90
22145;DHT22;11238;48.730;11.566;2024-01-16T13:45:59;0.30;99.90
22145;DHT22;11238;48.730;11.566;2024-01-16T13:48:25;0.30;99.90
22145;DHT22;11238;48.730;11.566;2024-01-16T13:50:51;0.30;99.90
22145;DHT22;11238;48.730;11.566;2024-01-16T13:53:17;0.20;99.90
22145;DHT22;11238;48.730;11.566;2024-01-16T13:55:44;0.20;99.90
22145;DHT22;11238;48.730;11.566;2024-01-16T13:58:10;0.10;99.90
22145;DHT22;11238;48.730;11.566;2024-01-16T14:00:37;0.00;99.90
22145;DHT22;11238;48.730;11.566;2024-01-16T14:03:03;0.00;99.90
22145;DHT22;11238;48.730;11.566;2024-01-16T14:05:31;-0.10;99.90
22145;DHT22;11238;48.730;11.566;2024-01-16T14:07:56;-0.10;99.90
22145;DHT22;11238;48.730;11.566;2024-01-16T14:10:23;0.00;99.90
22145;DHT22;11238;48.730;11.566;2024-01-16T14:12:51;-0.10;99.90
22145;DHT22;11238;48.730;11.566;2024-01-16T14:15:19;0.00;99.90
22145;DHT22;11238;48.730;11.566;2024-01-16T14:17:48;0.00;99.90
22145;DHT22;11238;48.730;11.566;2024-01-16T14:20:14;0.00;99.90
22145;DHT22;11238;48.730;11.566;2024-01-16T14:22:41;0.00;99.90
22145;DHT22;11238;48.730;11.566;2024-01-16T14:25:08;0.00;99.90
22145;DHT22;11238;48.730;11.566;2024-01-16T14:27:41;0.00;99.90
22145;DHT22;11238;48.730;11.566;2024-01-16T14:30:11;0.10;99.90
22145;DHT22;11238;48.730;11.566;2024-01-16T14:32:43;0.10;99.90
22145;DHT22;11238;48.730;11.566;2024-01-16T14:35:10;0.10;99.90
22145;DHT22;11238;48.730;11.566;2024-01-16T14:37:37;0.00;99.90
22145;DHT22;11238;48.730;11.566;2024-01-16T14:40:05;0.00;99.90
22145;DHT22;11238;48.730;11.566;2024-01-16T14:42:44;-0.10;99.90
22145;DHT22;11238;48.730;11.566;2024-01-16T14:45:10;-0.10;99.90
22145;DHT22;11238;48.730;11.566;2024-01-16T14:47:39;-0.10;99.90
22145;DHT22;11238;48.730;11.566;2024-01-16T14:50:09;-0.10;99.90
22145;DHT22;11238;48.730;11.566;2024-01-16T14:52:39;-0.10;99.90
22145;DHT22;11238;48.730;11.566;2024-01-16T14:55:06;0.00;99.90
22145;DHT22;11238;48.730;11.566;2024-01-16T14:57:35;0.10;99.90
22145;DHT22;11238;48.730;11.566;2024-01-16T15:00:13;0.20;99.90
22145;DHT22;11238;48.730;11.566;2024-01-16T15:02:46;0.20;99.90
22145;DHT22;11238;48.730;11.566;2024-01-16T15:05:16;0.20;99.90
22145;DHT22;11238;48.730;11.566;2024-01-16T15:07:42;0.20;99.90
22145;DHT22;11238;48.730;11.566;2024-01-16T15:10:09;0.20;99.90
22145;DHT22;11238;48.730;11.566;2024-01-16T15:12:40;0.10;99.90
22145;DHT22;11238;48.730;11.566;2024-01-16T15:15:10;0.10;99.90
22145;DHT22;11238;48.730;11.566;2024-01-16T15:17:41;0.00;99.90
22145;DHT22;11238;48.730;11.566;2024-01-16T15:20:09;0.00;99.90
22145;DHT22;11238;48.730;11.566;2024-01-16T15:22:40;0.10;99.90
22145;DHT22;11238;48.730;11.566;2024-01-16T15:25:08;0.10;99.90
22145;DHT22;11238;48.730;11.566;2024-01-16T15:27:36;0.20;99.90
22145;DHT22;11238;48.730;11.566;2024-01-16T15:30:05;0.20;99.90
22145;DHT22;11238;48.730;11.566;2024-01-16T15:32:34;0.30;99.90
22145;DHT22;11238;48.730;11.566;2024-01-16T15:35:02;0.40;99.90